CYB weather

Gerrard Smith International Airport
Cayman Brac, Cayman Islands

Public forecast

Using degrees Celsius for public forecast. Weather courtesy of forecast.io.

Current aviation weather report (METAR) for Gerrard Smith International Airport

Report is more than 6 hours old.

Retrieved 2020/01/28 00:00 UTC (10 hours ago):

MWCB 280000Z 22005KT 9999 FEW018 26/20 Q1014

Aviation forecast (TAF) for Gerrard Smith International Airport

Forecast is more than 6 hours old.

Retrieved 2020-01-28 00:00 UTC (10 hours ago):

TAF MWCR 272300Z 2800/2824 VRB05KT 9999 FEW020 TAF MWCB 272300Z 2718/2818 CNL